Nearby METAR Reports

 

ENCN - Kristiansand/Kje, Norway
Distance from station: Pn 17km
Aktualizacja: 07/07/2020 16:50
Few Clouds
Few Clouds
 Wiatr z Zd
Wiatr: Zd 22 km/h
Temperatura: 15°C
Punkt Rosy: 4°C
Wilgotność: 48%
Ciśnienie: 1007 hPa
Clouds: Few Clouds
Visibility: 10 km
Cloud details: Few Clouds 1372 m
Few Clouds 1372 m
2020/07/07 14:50 ENCN 071450Z 28012KT 250V310 9999 FEW045CB FEW045 15/04 Q1007
EKSN - Sindal Airport, Denmark
Distance from station: WsPdWs 145km
Aktualizacja: 07/07/2020 14:50
NOT Current
Przeważnie pochmurno
Przeważnie pochmurno
 Wiatr z ZdPdZa
Wiatr: ZdPdZa 35 km/h, Poryw: 54 km/h
Temperatura: 13°C
Punkt Rosy: 8°C
Wilgotność: 72%
Ciśnienie: 1008 hPa
Clouds: Przeważnie pochmurno
Visibility: 10 km
Cloud details: Few Clouds 762 m
Przeważnie pochmurno 2560 m
2020/07/07 12:50 EKSN 071250Z 25019G29KT 9999 FEW025 BKN084 13/08 Q1008
 
EKYT - Alborg, Denmark
Distance from station: PdWs 153km
Aktualizacja: 07/07/2020 16:50
Przeważnie pochmurno
Przeważnie pochmurno
 Wiatr z Zd
Wiatr: Zd 28 km/h
Temperatura: 13°C
Punkt Rosy: 8°C
Wilgotność: 72%
Ciśnienie: 1009 hPa
Clouds: Przeważnie pochmurno
Visibility: 10 km
Cloud details: Częściowe zachmurzenie 884 m
Przeważnie pochmurno 1036 m
Przeważnie pochmurno 1524 m
2020/07/07 14:50 EKYT 071450Z AUTO 28015KT 9999 SCT029/// BKN034/// BKN050/// 13/08 Q1009
ENSN - Skien/Geiterygge, Norway
Distance from station: PnWs 153km
Aktualizacja: 09/11/2015 09:50
NOT Current
Bezchmurnie
Bezchmurnie
 Wiatr z PdPdZd
Wiatr: PdPdZd 19 km/h, Poryw: 41 km/h
Temperatura: 7°C
Wind Chill: 4°C
Punkt Rosy: 3°C
Wilgotność: 76%
Ciśnienie: 1000 hPa
Podsumowanie: Bezchmurnie
Visibility: greater than 10 km
2015/11/09 08:50 ENSN 090850Z 20010G22KT 150V240 CAVOK 07/03 Q1000
 
ENZV - Stavanger/Sola(A, Norway
Distance from station: PnZd 166km
Aktualizacja: 07/07/2020 16:50
Częściowe zachmurzenie
Częściowe zachmurzenie
 Wiatr z ZdPnZd
Wiatr: ZdPnZd 31 km/h
Temperatura: 13°C
Punkt Rosy: 5°C
Wilgotność: 59%
Ciśnienie: 1009 hPa
Clouds: Częściowe zachmurzenie
Visibility: 10 km
Cloud details: Few Clouds 457 m
Częściowe zachmurzenie 914 m
2020/07/07 14:50 ENZV 071450Z 30017KT 9999 FEW015 SCT030TCU 13/05 Q1009 NOSIG
ENNO - Notodden, Norway
Distance from station: PnPnZd 182km
Aktualizacja: 07/07/2020 16:50
Nearby showers, Przeważnie pochmurno
Nearby showers, Przeważnie pochmurno
 Wiatr z WsPdWs
Wiatr: WsPdWs 17 km/h
Temperatura: 13°C
Punkt Rosy: 6°C
Wilgotność: 63%
Ciśnienie: 1003 hPa
Podsumowanie: Nearby Showers
Clouds: Przeważnie pochmurno
Visibility: 10 km
Cloud details: Few Clouds 1524 m
Przeważnie pochmurno 1981 m
2020/07/07 14:50 ENNO 071450Z 11009KT 9999 VCSH FEW050 BKN065 13/06 Q1003
 
ENTO - Torp (civ/Nor-Af, Norway
Distance from station: PnWs 183km
Aktualizacja: 07/07/2020 16:50
Nearby showers, Częściowe zachmurzenie
Nearby showers, Częściowe zachmurzenie
 Wiatr z Pn
Wiatr: Pn 20 km/h
Temperatura: 12°C
Punkt Rosy: 4°C
Wilgotność: 58%
Ciśnienie: 1004 hPa
Podsumowanie: Nearby Showers
Clouds: Częściowe zachmurzenie
Visibility: 10 km
Cloud details: Częściowe zachmurzenie 1524 m
Częściowe zachmurzenie 1829 m
2020/07/07 14:50 ENTO 071450Z 35011KT 9999 VCSH SCT050CB SCT060 12/04 Q1004 TEMPO SHRA
EKKA - Karup (dan-Afb), Denmark
Distance from station: PdPdWs 209km
Aktualizacja: 07/07/2020 16:50
Częściowe zachmurzenie
Częściowe zachmurzenie
 Wiatr z Zd
Wiatr: Zd 28 km/h
Temperatura: 14°C
Punkt Rosy: 7°C
Wilgotność: 63%
Ciśnienie: 1011 hPa
Clouds: Częściowe zachmurzenie
Visibility: 10 km
Cloud details: Częściowe zachmurzenie 1036 m
2020/07/07 14:50 EKKA 071450Z AUTO 27015KT 9999 SCT034/// 14/07 Q1011
 
ENHD - Haugesund/Karmoy, Norway
Distance from station: PnZd 216km
Aktualizacja: 07/07/2020 16:50
Few Clouds
Few Clouds
 Wiatr z PnZd
Wiatr: PnZd 26 km/h
Temperatura: 13°C
Punkt Rosy: 6°C
Wilgotność: 63%
Ciśnienie: 1009 hPa
Clouds: Few Clouds
Visibility: 10 km
Cloud details: Few Clouds 1006 m
2020/07/07 14:50 ENHD 071450Z AUTO 31014KT 9999 FEW033/// 13/06 Q1009
ENRY - Rygge (nor-Afb), Norway
Distance from station: PnWs 216km
Aktualizacja: 07/07/2020 16:50
Przeważnie pochmurno
Przeważnie pochmurno
 Wiatr z Zd
Wiatr: Zd 13 km/h
Temperatura: 12°C
Punkt Rosy: 5°C
Wilgotność: 63%
Ciśnienie: 1004 hPa
Clouds: Przeważnie pochmurno
Visibility: 10 km
Cloud details: Częściowe zachmurzenie 2012 m
Przeważnie pochmurno 2682 m
2020/07/07 14:50 ENRY 071450Z 27007KT 9999 SCT066 BKN088 12/05 Q1004
 
ESGP - Goteborg/Save (a, Sweden
Distance from station: Ws 230km
Aktualizacja: 02/01/2017 11:20
NOT Current
Bezchmurnie
Bezchmurnie
 Wiatr z calm
Wiatr: Cisza
Temperatura: -2°C
Punkt Rosy: -4°C
Wilgotność: 86%
Ciśnienie: 1012 hPa
Clouds: Bezchmurnie
Visibility: 10 km
2017/01/02 10:20 ESGP 021020Z AUTO 00000KT 9999 NCD M02/M04 Q1012
EKVJ - Stauning Airport, Denmark
Distance from station: Pd 233km
Aktualizacja: 07/07/2020 15:50
NOT Current
Nearby showers, Częściowe zachmurzenie
Nearby showers, Częściowe zachmurzenie
 Wiatr z ZdPnZd
Wiatr: ZdPnZd 24 km/h
Temperatura: 15°C
Punkt Rosy: 12°C
Wilgotność: 82%
Ciśnienie: 1012 hPa
Podsumowanie: Nearby Showers
Clouds: Częściowe zachmurzenie
Visibility: 10 km
Cloud details: Few Clouds 610 m
Częściowe zachmurzenie 762 m
2020/07/07 13:50 EKVJ 071350Z 30013KT 9999 VCSH FEW020TCU SCT025 15/12 Q1012
 
ENSO - Stord/Soerstokke, Norway
Distance from station: PnZd 246km
Aktualizacja: 07/07/2020 14:50
NOT Current
Częściowe zachmurzenie
Częściowe zachmurzenie
 Wiatr z PnZd
Wiatr: PnZd 19 km/h
Temperatura: 11°C
Punkt Rosy: 8°C
Wilgotność: 82%
Ciśnienie: 1008 hPa
Clouds: Częściowe zachmurzenie
Visibility: 10 km
Cloud details: Few Clouds 610 m
Częściowe zachmurzenie 914 m
2020/07/07 12:50 ENSO 071250Z 31010KT 270V350 9999 FEW020TCU SCT030 11/08 Q1008
EKAH - Tirstrup (civ/Mi, Denmark
Distance from station: PdWs 252km
Aktualizacja: 07/07/2020 16:50
Przeważnie pochmurno
Przeważnie pochmurno
 Wiatr z ZdPnZd
Wiatr: ZdPnZd 26 km/h
Temperatura: 16°C
Punkt Rosy: 8°C
Wilgotność: 59%
Ciśnienie: 1011 hPa
Clouds: Przeważnie pochmurno
Visibility: 10 km
Cloud details: Przeważnie pochmurno 1189 m
2020/07/07 14:50 EKAH 071450Z AUTO 29014KT 9999NDV BKN039/// 16/08 Q1011
 
ESGT - Trollhattan (pvt, Sweden
Distance from station: Ws 255km
Aktualizacja: 07/07/2020 16:50
Pochmurno
Pochmurno
 Wiatr z PdZd
Wiatr: PdZd 33 km/h
Temperatura: 13°C
Punkt Rosy: 5°C
Wilgotność: 59%
Ciśnienie: 1006 hPa
Clouds: Pochmurno
Visibility: 10 km
Cloud details: Przeważnie pochmurno 1128 m
Pochmurno 3658 m
2020/07/07 14:50 ESGT 071450Z AUTO 22018KT 200V260 9999 R15/P2000N R33///// BKN037/// OVC120/// 13/05 Q1006
ESGG - Goteborg/Landvet, Sweden
Distance from station: Ws 257km
Aktualizacja: 07/07/2020 16:50
Przeważnie pochmurno
Przeważnie pochmurno
 Wiatr z ZdPdZa
Wiatr: ZdPdZa 26 km/h
Temperatura: 11°C
Punkt Rosy: 7°C
Wilgotność: 77%
Ciśnienie: 1007 hPa
Clouds: Przeważnie pochmurno
Visibility: 10 km
Cloud details: Few Clouds 640 m
Przeważnie pochmurno 1554 m
2020/07/07 14:50 ESGG 071450Z 24014KT 9999 FEW021 BKN051 11/07 Q1007
 
EKBI - Billund Airport, Denmark
Distance from station: PdPdWs 269km
Aktualizacja: 07/07/2020 16:50
Przeważnie pochmurno
Przeważnie pochmurno
 Wiatr z Zd
Wiatr: Zd 22 km/h
Temperatura: 14°C
Punkt Rosy: 9°C
Wilgotność: 72%
Ciśnienie: 1012 hPa
Clouds: Przeważnie pochmurno
Visibility: 10 km
Cloud details: Przeważnie pochmurno 732 m
2020/07/07 14:50 EKBI 071450Z 28012KT 9999 BKN024 14/09 Q1012
EKHN - Horns Rev B Heli, Denmark
Distance from station: Pd 274km
Aktualizacja: 09/08/2016 14:20
NOT Current
Few Clouds
Few Clouds
 Wiatr z ZdPnZd
Wiatr: ZdPnZd 50 km/h, Poryw: 72 km/h
Temperatura: 14°C
Punkt Rosy: 10°C
Wilgotność: 77%
Ciśnienie: 1018 hPa
Clouds: Few Clouds
Visibility: 10 km
Cloud details: Few Clouds 1158 m
Few Clouds 2438 m
2016/08/09 12:20 EKHN 091220Z AUTO 29027G39KT 270V340 9999NDV FEW038/// FEW080/// 14/10 Q1018
 
ESIB - Satenas (swe-Afb, Sweden
Distance from station: Ws 277km
Aktualizacja: 07/07/2020 16:50
Przeważnie pochmurno
Przeważnie pochmurno
 Wiatr z ZdPdZa
Wiatr: ZdPdZa 35 km/h
Temperatura: 14°C
Punkt Rosy: 7°C
Wilgotność: 63%
Ciśnienie: 1005 hPa
Clouds: Przeważnie pochmurno
Visibility: 10 km
Cloud details: Częściowe zachmurzenie 1280 m
Przeważnie pochmurno 1707 m
2020/07/07 14:50 ESIB 071450Z AUTO 24019KT 9999 SCT042/// BKN056/// 14/07 Q1005
EKHR - Horns Rev B Heli, Denmark
Distance from station: Pd 282km
Aktualizacja: 04/10/2016 06:20
NOT Current
Bezchmurnie
Bezchmurnie
 Wiatr z Ws
Wiatr: Ws 4 km/h
Temperatura: 11°C
Punkt Rosy: -49°C
Wilgotność: 0%
Ciśnienie: 1038 hPa
Clouds: Bezchmurnie
Visibility: 10 km
2016/10/04 04:20 EKHR 040420Z AUTO 08002KT 9999NDV NCD 11/M49 Q1038